Time;durP1;ratioP1;P1;durP2;ratioP2;P2;SDS_P1;SDS_P2;PMS_P1;PMS_P2;Temp;Humidity;BMP_temperature;BMP_pressure;BME280_temperature;BME280_humidity;BME280_pressure;Samples;Min_cycle;Max_cycle;Signal;HPM_P1;HPM_P2
2023/04/08 00:01:52;;;;;;;4.07;1.90;;;12.10;99.90;;;;;;5114714;28;20071;-64
2023/04/08 00:04:18;;;;;;;7.95;2.00;;;12.10;99.90;;;;;;5113730;28;20610;-65
2023/04/08 00:06:43;;;;;;;4.30;2.03;;;12.10;99.90;;;;;;5114513;28;20016;-63
2023/04/08 00:09:09;;;;;;;4.45;2.10;;;12.10;99.90;;;;;;5114061;28;20480;-62
2023/04/08 00:11:36;;;;;;;3.63;1.90;;;12.00;99.90;;;;;;5114251;28;20026;-64
2023/04/08 00:14:03;;;;;;;3.83;1.88;;;12.10;99.90;;;;;;5113232;28;20028;-64
2023/04/08 00:16:29;;;;;;;3.65;1.67;;;12.00;99.90;;;;;;5113951;28;20020;-65
2023/04/08 00:18:55;;;;;;;5.85;2.08;;;12.00;99.90;;;;;;5113711;28;20061;-65
2023/04/08 00:21:22;;;;;;;4.22;1.98;;;11.90;99.90;;;;;;5113895;28;20102;-64
2023/04/08 00:23:48;;;;;;;4.20;2.10;;;11.90;99.90;;;;;;5114024;28;20035;-64
2023/04/08 00:26:13;;;;;;;6.50;2.10;;;11.80;99.90;;;;;;5113648;28;20043;-65
2023/04/08 00:28:39;;;;;;;2.90;1.75;;;11.90;99.90;;;;;;5113961;28;20043;-64
2023/04/08 00:31:05;;;;;;;4.32;1.90;;;11.80;99.90;;;;;;5114069;28;20031;-64
2023/04/08 00:33:31;;;;;;;6.40;1.98;;;11.80;99.90;;;;;;5112884;28;20080;-65
2023/04/08 00:35:57;;;;;;;3.47;2.03;;;11.80;99.90;;;;;;5114240;28;20031;-64
2023/04/08 00:38:22;;;;;;;3.97;1.58;;;11.70;99.90;;;;;;5113541;28;20028;-64
2023/04/08 00:40:48;;;;;;;3.20;1.70;;;11.80;99.90;;;;;;5113546;28;20031;-64
2023/04/08 00:43:15;;;;;;;4.28;1.92;;;11.80;99.90;;;;;;5113735;28;20020;-65
2023/04/08 00:45:41;;;;;;;4.15;1.90;;;11.70;99.90;;;;;;5112999;28;20024;-65
2023/04/08 00:48:06;;;;;;;3.33;1.80;;;11.70;99.90;;;;;;5113468;28;20511;-65
2023/04/08 00:50:32;;;;;;;6.60;1.80;;;11.70;99.90;;;;;;5113614;28;20024;-64
2023/04/08 00:52:58;;;;;;;3.25;1.65;;;11.50;99.90;;;;;;5113371;28;20031;-64
2023/04/08 00:55:24;;;;;;;4.35;2.00;;;11.50;99.90;;;;;;5113485;28;20066;-64
2023/04/08 00:57:50;;;;;;;5.75;1.90;;;11.50;99.90;;;;;;5113188;28;20023;-65
2023/04/08 01:00:15;;;;;;;5.72;1.75;;;11.50;99.90;;;;;;5113636;28;20023;-65
2023/04/08 01:02:47;;;;;;;2.92;1.80;;;11.40;99.90;;;;;;5113058;28;20027;-64
2023/04/08 01:05:34;;;;;;;5.13;1.90;;;11.40;99.90;;;;;;5113214;28;20034;-62
2023/04/08 01:08:04;;;;;;;3.88;1.75;;;11.30;99.90;;;;;;5112747;28;20043;-65
2023/04/08 01:10:32;;;;;;;4.05;1.60;;;11.30;99.90;;;;;;5113502;28;20465;-65
2023/04/08 01:13:03;;;;;;;5.22;1.60;;;11.30;99.90;;;;;;5113023;28;20034;-63
2023/04/08 01:15:29;;;;;;;3.13;1.92;;;11.30;99.90;;;;;;5112485;28;20028;-65
2023/04/08 01:17:57;;;;;;;2.92;1.65;;;11.20;99.90;;;;;;5113184;28;20028;-65
2023/04/08 01:20:24;;;;;;;3.15;1.90;;;11.20;99.90;;;;;;5112980;28;20137;-65
2023/04/08 01:22:52;;;;;;;4.80;2.15;;;11.10;99.90;;;;;;5112855;28;20084;-64
2023/04/08 01:25:23;;;;;;;3.38;1.58;;;11.00;99.90;;;;;;5113231;28;20075;-65
2023/04/08 01:27:49;;;;;;;4.07;1.95;;;11.10;99.90;;;;;;5112819;28;20074;-65
2023/04/08 01:30:18;;;;;;;3.45;1.67;;;11.10;99.90;;;;;;5112736;28;20034;-64
2023/04/08 01:32:46;;;;;;;4.93;1.70;;;11.10;99.90;;;;;;5112808;28;20016;-64
2023/04/08 01:35:14;;;;;;;2.58;1.60;;;11.10;99.90;;;;;;5112758;28;20555;-64
2023/04/08 01:37:40;;;;;;;3.25;1.50;;;11.00;99.90;;;;;;5112739;28;20026;-65
2023/04/08 01:40:07;;;;;;;4.18;1.70;;;10.90;99.90;;;;;;5113106;28;20514;-63
2023/04/08 01:42:35;;;;;;;3.65;1.80;;;10.90;99.90;;;;;;5112605;28;20027;-64
2023/04/08 01:45:03;;;;;;;5.47;2.08;;;10.90;99.90;;;;;;5112351;28;20031;-64
2023/04/08 01:47:29;;;;;;;3.08;1.42;;;10.70;99.90;;;;;;5112379;28;20027;-64
2023/04/08 01:49:56;;;;;;;4.13;1.55;;;10.60;99.90;;;;;;5112267;28;20076;-65
2023/04/08 01:52:24;;;;;;;4.78;1.70;;;10.70;99.90;;;;;;5112728;28;20042;-64
2023/04/08 01:54:50;;;;;;;5.15;1.80;;;10.60;99.90;;;;;;5112587;28;20398;-64
2023/04/08 01:57:22;;;;;;;4.07;1.70;;;10.60;99.90;;;;;;5112347;28;20111;-65
2023/04/08 01:59:51;;;;;;;3.17;1.75;;;10.60;99.90;;;;;;5091923;28;20082;-63
2023/04/08 02:02:21;;;;;;;6.07;1.85;;;10.50;99.90;;;;;;5092179;28;20027;-65
2023/04/08 02:04:47;;;;;;;4.03;1.73;;;10.50;99.90;;;;;;5092402;28;20103;-65
2023/04/08 02:07:13;;;;;;;5.95;1.60;;;10.50;99.90;;;;;;5092185;28;20124;-64
2023/04/08 02:09:39;;;;;;;3.67;2.00;;;10.50;99.90;;;;;;5073971;28;20089;-64
2023/04/08 02:12:05;;;;;;;4.35;1.70;;;10.40;99.90;;;;;;5092486;28;20020;-64
2023/04/08 02:14:31;;;;;;;3.70;1.70;;;10.40;99.90;;;;;;5091731;28;20036;-65
2023/04/08 02:17:09;;;;;;;6.00;1.80;;;10.30;99.90;;;;;;5108751;28;20027;-64
2023/04/08 02:19:39;;;;;;;2.97;1.50;;;10.20;99.90;;;;;;5112384;28;20476;-64
2023/04/08 02:22:10;;;;;;;4.25;1.90;;;10.10;99.90;;;;;;5112320;28;20020;-64
2023/04/08 02:24:37;;;;;;;2.88;1.50;;;9.90;99.90;;;;;;5112275;28;20067;-64
2023/04/08 02:27:04;;;;;;;4.10;1.83;;;9.90;99.90;;;;;;5112000;28;20024;-64
2023/04/08 02:29:32;;;;;;;3.28;1.60;;;9.80;99.90;;;;;;5111836;28;20028;-65
2023/04/08 02:32:01;;;;;;;5.22;1.80;;;9.80;99.90;;;;;;5112617;28;20020;-64
2023/04/08 02:34:27;;;;;;;2.92;1.40;;;9.70;99.90;;;;;;5112249;28;20031;-64
2023/04/08 02:36:53;;;;;;;3.00;1.70;;;9.70;99.90;;;;;;5112108;28;20016;-63
2023/04/08 02:39:18;;;;;;;3.63;1.65;;;9.70;99.90;;;;;;5111864;28;20035;-63
2023/04/08 02:41:44;;;;;;;3.03;1.65;;;9.70;99.90;;;;;;5112454;28;20031;-64
2023/04/08 02:44:10;;;;;;;3.75;1.75;;;9.70;99.90;;;;;;5111636;28;20024;-65
2023/04/08 02:46:36;;;;;;;4.28;1.95;;;9.70;99.90;;;;;;5112104;28;20145;-64
2023/04/08 02:49:01;;;;;;;4.10;1.88;;;9.70;99.90;;;;;;5111854;28;20027;-65
2023/04/08 02:51:27;;;;;;;3.97;2.00;;;9.90;99.90;;;;;;5111903;28;20396;-66
2023/04/08 02:53:53;;;;;;;5.63;1.90;;;9.90;99.90;;;;;;5112419;28;20069;-65
2023/04/08 02:56:18;;;;;;;4.80;1.70;;;9.90;99.90;;;;;;5111955;28;20035;-65
2023/04/08 02:58:44;;;;;;;2.97;1.50;;;9.90;99.90;;;;;;5111408;28;20030;-64
2023/04/08 03:01:10;;;;;;;4.03;2.00;;;9.90;99.90;;;;;;5112248;28;20081;-65
2023/04/08 03:03:36;;;;;;;3.90;2.00;;;9.90;99.90;;;;;;5114270;28;20027;-65
2023/04/08 03:06:02;;;;;;;3.40;1.70;;;9.80;99.90;;;;;;5115742;28;20024;-63
2023/04/08 03:08:27;;;;;;;2.83;1.83;;;9.80;99.90;;;;;;5115605;28;20069;-65
2023/04/08 03:10:53;;;;;;;5.32;1.92;;;9.80;99.90;;;;;;5115381;28;20029;-64
2023/04/08 03:13:19;;;;;;;4.97;1.92;;;9.70;99.90;;;;;;5115167;28;20463;-66
2023/04/08 03:15:45;;;;;;;4.10;1.67;;;9.60;99.90;;;;;;5097267;28;20162;-65
2023/04/08 03:18:10;;;;;;;5.05;1.70;;;9.60;99.90;;;;;;5115164;28;20024;-65
2023/04/08 03:20:36;;;;;;;3.67;1.70;;;9.50;99.90;;;;;;5115484;28;20030;-65
2023/04/08 03:23:02;;;;;;;4.07;1.88;;;9.40;99.90;;;;;;5115395;28;20024;-63
2023/04/08 03:25:28;;;;;;;3.53;1.95;;;9.30;99.90;;;;;;5115028;28;20146;-65
2023/04/08 03:27:54;;;;;;;3.80;2.00;;;9.30;99.90;;;;;;5114897;28;20391;-65
2023/04/08 03:30:20;;;;;;;3.80;1.98;;;9.30;99.90;;;;;;5115326;28;20036;-65
2023/04/08 03:32:46;;;;;;;4.38;1.85;;;9.20;99.90;;;;;;5115066;28;20027;-65
2023/04/08 03:35:11;;;;;;;4.07;1.70;;;9.20;99.90;;;;;;5115071;28;20027;-65
2023/04/08 03:37:37;;;;;;;3.72;1.83;;;9.10;99.90;;;;;;5114723;28;20106;-65
2023/04/08 03:40:03;;;;;;;2.50;1.50;;;9.00;99.90;;;;;;5114598;28;20095;-64
2023/04/08 03:42:29;;;;;;;3.55;1.60;;;8.90;99.90;;;;;;5114857;28;20031;-65
2023/04/08 03:44:56;;;;;;;2.83;1.77;;;8.90;99.90;;;;;;5096776;28;20388;-65
2023/04/08 03:47:21;;;;;;;3.75;1.70;;;8.90;99.90;;;;;;5114680;28;20027;-65
2023/04/08 03:49:47;;;;;;;3.58;1.60;;;8.90;99.90;;;;;;5114746;28;20034;-64
2023/04/08 03:52:13;;;;;;;2.97;1.67;;;8.80;99.90;;;;;;5114588;28;20023;-63
2023/04/08 03:54:38;;;;;;;4.85;1.67;;;8.90;99.90;;;;;;5114645;28;20038;-65
2023/04/08 03:57:04;;;;;;;2.70;1.73;;;8.90;99.90;;;;;;5096534;28;20024;-64
2023/04/08 03:59:30;;;;;;;2.72;1.58;;;8.80;99.90;;;;;;5114473;28;20079;-65
2023/04/08 04:01:56;;;;;;;5.88;1.85;;;8.90;99.90;;;;;;5114521;28;20024;-64
2023/04/08 04:04:22;;;;;;;2.10;1.38;;;8.80;99.90;;;;;;5114390;28;20509;-64
2023/04/08 04:06:48;;;;;;;2.85;1.60;;;8.80;99.90;;;;;;5114629;28;20052;-63
2023/04/08 04:09:14;;;;;;;3.75;1.50;;;8.70;99.90;;;;;;5114080;28;20524;-65
2023/04/08 04:11:39;;;;;;;2.47;1.60;;;8.70;99.90;;;;;;5114345;28;20411;-64
2023/04/08 04:14:05;;;;;;;2.55;1.40;;;8.70;99.90;;;;;;5113737;28;20028;-64
2023/04/08 04:16:31;;;;;;;3.28;1.30;;;8.60;99.90;;;;;;5114101;28;20020;-64
2023/04/08 04:18:56;;;;;;;3.22;1.63;;;8.60;99.90;;;;;;5114158;28;20491;-65
2023/04/08 04:21:22;;;;;;;2.35;1.63;;;8.60;99.90;;;;;;5114177;28;20024;-64
2023/04/08 04:23:48;;;;;;;2.50;1.48;;;8.40;99.90;;;;;;5113833;28;20023;-64
2023/04/08 04:26:14;;;;;;;2.40;1.60;;;8.40;99.90;;;;;;5113819;28;20130;-65
2023/04/08 04:28:40;;;;;;;3.30;1.60;;;8.40;99.90;;;;;;5113920;28;20466;-65
2023/04/08 04:31:06;;;;;;;2.45;1.60;;;8.50;99.90;;;;;;5114295;28;20019;-64
2023/04/08 04:33:31;;;;;;;4.25;1.60;;;8.50;99.90;;;;;;5113770;28;20481;-64
2023/04/08 04:35:57;;;;;;;3.00;1.67;;;8.40;99.90;;;;;;5113882;28;20023;-64
2023/04/08 04:38:22;;;;;;;2.42;1.70;;;8.30;99.90;;;;;;5113384;28;20441;-64
2023/04/08 04:40:48;;;;;;;2.17;1.50;;;8.30;99.90;;;;;;5113521;28;20530;-64
2023/04/08 04:43:14;;;;;;;3.70;1.73;;;8.30;99.90;;;;;;5113804;28;20032;-65
2023/04/08 04:45:39;;;;;;;3.55;1.70;;;8.30;99.90;;;;;;5113971;28;20031;-66
2023/04/08 04:48:05;;;;;;;4.60;1.63;;;8.20;99.90;;;;;;5113542;28;20074;-65
2023/04/08 04:50:31;;;;;;;2.75;1.42;;;8.20;99.90;;;;;;5113576;28;20024;-64
2023/04/08 04:52:57;;;;;;;4.65;1.63;;;8.20;99.90;;;;;;5113361;28;20055;-63
2023/04/08 04:55:22;;;;;;;5.75;1.80;;;8.10;99.90;;;;;;5113477;28;20020;-65
2023/04/08 04:57:48;;;;;;;3.88;1.83;;;8.10;99.90;;;;;;5113262;28;20024;-64
2023/04/08 05:00:15;;;;;;;5.15;2.00;;;8.10;99.90;;;;;;5113741;28;20476;-65
2023/04/08 05:02:40;;;;;;;4.90;1.95;;;8.10;99.90;;;;;;5113457;28;20115;-62
2023/04/08 05:05:06;;;;;;;5.28;2.03;;;8.10;99.90;;;;;;5113095;28;20110;-64
2023/04/08 05:07:36;;;;;;;5.38;2.00;;;8.10;99.90;;;;;;5112796;28;20035;-65
2023/04/08 05:10:03;;;;;;;3.88;1.70;;;8.00;99.90;;;;;;5113210;28;20042;-63
2023/04/08 05:12:29;;;;;;;3.10;1.65;;;8.00;99.90;;;;;;5113090;28;20069;-64
2023/04/08 05:14:57;;;;;;;3.63;1.48;;;7.90;99.90;;;;;;5094862;28;20023;-64
2023/04/08 05:17:23;;;;;;;3.88;1.90;;;8.00;99.90;;;;;;5112706;28;20072;-64
2023/04/08 05:19:49;;;;;;;3.55;1.75;;;7.90;99.90;;;;;;5113318;28;20031;-64
2023/04/08 05:22:14;;;;;;;3.55;1.80;;;7.90;99.90;;;;;;5112681;28;20487;-65
2023/04/08 05:24:40;;;;;;;2.75;1.45;;;7.90;99.90;;;;;;5112392;28;20050;-64
2023/04/08 05:27:06;;;;;;;2.70;1.80;;;8.00;99.90;;;;;;5112472;28;20020;-64
2023/04/08 05:29:31;;;;;;;3.75;1.80;;;7.90;99.90;;;;;;5112777;28;20024;-65
2023/04/08 05:31:57;;;;;;;3.85;2.05;;;7.90;99.90;;;;;;5112880;28;20072;-64
2023/04/08 05:34:23;;;;;;;3.22;1.75;;;7.90;99.90;;;;;;5112717;28;20028;-64
2023/04/08 05:36:50;;;;;;;4.72;2.00;;;7.80;99.90;;;;;;5112382;28;20034;-63
2023/04/08 05:39:17;;;;;;;2.75;1.85;;;7.80;99.90;;;;;;5112681;28;20031;-65
2023/04/08 05:41:43;;;;;;;3.78;2.17;;;7.80;99.90;;;;;;5113329;28;20058;-65
2023/04/08 05:44:09;;;;;;;3.42;2.20;;;7.80;99.90;;;;;;5112710;28;20039;-64
2023/04/08 05:46:36;;;;;;;4.60;2.10;;;7.80;99.90;;;;;;5077960;28;20384;-65
2023/04/08 05:49:02;;;;;;;4.45;2.25;;;7.80;99.90;;;;;;5112150;28;20515;-65
2023/04/08 05:51:27;;;;;;;4.07;2.25;;;7.70;99.90;;;;;;5112238;28;20024;-64
2023/04/08 05:53:53;;;;;;;3.60;2.05;;;7.70;99.90;;;;;;5112649;28;20024;-65
2023/04/08 05:56:19;;;;;;;2.97;2.00;;;7.80;99.90;;;;;;5112552;28;20023;-66
2023/04/08 05:58:45;;;;;;;4.07;1.88;;;7.90;99.90;;;;;;5112704;28;20099;-64
2023/04/08 06:01:11;;;;;;;3.60;2.15;;;7.90;99.90;;;;;;5112189;28;20103;-64
2023/04/08 06:03:37;;;;;;;2.47;1.77;;;8.00;99.90;;;;;;5112412;28;20026;-64
2023/04/08 06:06:03;;;;;;;3.47;1.70;;;8.00;99.90;;;;;;5112500;28;20027;-64
2023/04/08 06:08:28;;;;;;;3.47;1.77;;;8.00;99.90;;;;;;5112320;28;20480;-64
2023/04/08 06:10:54;;;;;;;3.95;1.67;;;8.10;99.90;;;;;;5112311;28;20028;-64
2023/04/08 06:13:20;;;;;;;2.58;1.60;;;8.10;99.90;;;;;;5112443;28;20032;-66
2023/04/08 06:15:48;;;;;;;4.82;1.60;;;8.10;99.90;;;;;;5112686;28;20038;-66
2023/04/08 06:18:15;;;;;;;2.92;1.70;;;8.20;99.90;;;;;;5112053;28;20028;-67
2023/04/08 06:20:41;;;;;;;4.25;1.90;;;8.20;99.90;;;;;;5112091;28;20030;-65
2023/04/08 06:23:07;;;;;;;2.90;1.63;;;8.30;99.90;;;;;;5112372;28;20035;-65
2023/04/08 06:25:32;;;;;;;3.10;1.75;;;8.40;99.90;;;;;;5112414;28;20043;-65
2023/04/08 06:27:58;;;;;;;2.85;1.63;;;8.50;99.90;;;;;;5112325;28;20028;-65
2023/04/08 06:30:24;;;;;;;3.90;1.67;;;8.50;99.90;;;;;;5112353;28;20468;-64
2023/04/08 06:32:49;;;;;;;4.45;1.83;;;8.50;99.90;;;;;;5112156;28;20074;-65
2023/04/08 06:35:15;;;;;;;3.75;1.80;;;8.80;99.90;;;;;;5112192;28;20035;-65
2023/04/08 06:37:41;;;;;;;3.33;1.50;;;8.80;99.90;;;;;;5114842;28;20103;-64
2023/04/08 06:40:07;;;;;;;4.55;1.63;;;8.80;99.90;;;;;;5116093;28;20473;-65
2023/04/08 06:42:33;;;;;;;3.00;1.77;;;8.90;99.90;;;;;;5116384;28;20024;-65
2023/04/08 06:44:58;;;;;;;2.33;1.67;;;9.00;99.90;;;;;;5115991;28;20030;-64
2023/04/08 06:47:24;;;;;;;3.58;1.80;;;9.10;99.90;;;;;;5115791;28;20036;-65
2023/04/08 06:49:50;;;;;;;2.38;1.70;;;9.20;99.90;;;;;;5115395;28;20122;-64
2023/04/08 06:52:16;;;;;;;4.63;1.70;;;9.20;99.90;;;;;;5115274;28;20027;-64
2023/04/08 06:54:42;;;;;;;3.10;1.67;;;9.30;99.90;;;;;;5115729;28;20035;-62
2023/04/08 06:57:07;;;;;;;2.75;1.70;;;9.40;99.90;;;;;;5115845;28;20107;-63
2023/04/08 06:59:33;;;;;;;4.15;1.75;;;9.40;99.90;;;;;;5115509;28;20030;-63
2023/04/08 07:01:59;;;;;;;3.67;1.77;;;9.50;99.90;;;;;;5115823;28;20031;-63
2023/04/08 07:04:25;;;;;;;2.05;1.50;;;9.50;99.90;;;;;;5115189;28;20030;-63
2023/04/08 07:06:51;;;;;;;3.72;1.73;;;9.50;99.90;;;;;;5115431;28;20024;-63
2023/04/08 07:09:17;;;;;;;4.10;1.77;;;9.60;99.90;;;;;;5115843;28;20039;-63
2023/04/08 07:11:43;;;;;;;6.03;1.60;;;9.60;99.90;;;;;;5115533;28;20532;-63
2023/04/08 07:14:08;;;;;;;2.33;1.40;;;9.70;99.90;;;;;;5115079;28;20024;-64
2023/04/08 07:16:34;;;;;;;2.92;1.50;;;9.80;99.90;;;;;;5115740;28;20441;-64
2023/04/08 07:19:00;;;;;;;4.65;1.60;;;9.70;99.90;;;;;;5114716;28;20035;-64
2023/04/08 07:21:26;;;;;;;3.42;1.67;;;9.80;99.90;;;;;;5115190;28;20024;-64
2023/04/08 07:23:52;;;;;;;2.15;1.40;;;9.90;99.90;;;;;;5115332;28;20050;-64
2023/04/08 07:26:18;;;;;;;3.60;1.75;;;10.00;99.90;;;;;;5115381;28;20045;-64
2023/04/08 07:28:44;;;;;;;2.40;1.42;;;10.00;99.90;;;;;;5114975;28;20063;-63
2023/04/08 07:31:14;;;;;;;1.90;1.60;;;10.10;99.90;;;;;;5115079;28;20027;-64
2023/04/08 07:33:40;;;;;;;5.95;1.80;;;10.20;99.90;;;;;;5114625;28;20069;-63
2023/04/08 07:36:07;;;;;;;3.83;1.70;;;10.30;99.90;;;;;;5115309;28;20400;-63
2023/04/08 07:38:33;;;;;;;2.95;1.70;;;10.50;99.90;;;;;;5114786;28;20209;-63
2023/04/08 07:40:59;;;;;;;3.10;1.70;;;10.50;99.90;;;;;;5114904;28;20488;-63
2023/04/08 07:43:25;;;;;;;2.40;1.60;;;10.60;99.90;;;;;;5114680;28;20024;-63
2023/04/08 07:45:51;;;;;;;3.33;1.52;;;10.70;99.90;;;;;;5115066;28;20028;-64
2023/04/08 07:48:17;;;;;;;2.55;1.50;;;10.90;99.90;;;;;;5113317;28;20042;-63
2023/04/08 07:50:44;;;;;;;2.90;1.83;;;11.00;99.90;;;;;;5114682;28;20468;-63
2023/04/08 07:53:10;;;;;;;1.90;1.35;;;11.00;99.90;;;;;;5115017;28;20523;-63
2023/04/08 07:55:36;;;;;;;2.35;1.30;;;11.10;99.90;;;;;;5114503;28;20111;-63
2023/04/08 07:58:01;;;;;;;2.50;1.40;;;11.10;99.90;;;;;;5114520;28;20100;-63
2023/04/08 08:00:29;;;;;;;4.35;1.42;;;11.20;99.90;;;;;;5114504;28;20468;-63
2023/04/08 08:02:55;;;;;;;3.17;1.67;;;11.30;99.90;;;;;;5114130;28;20055;-63
2023/04/08 08:05:21;;;;;;;3.90;1.70;;;11.40;99.90;;;;;;5114390;28;20016;-63
2023/04/08 08:07:46;;;;;;;5.00;1.85;;;11.40;99.90;;;;;;5114437;28;20028;-63
2023/04/08 08:10:12;;;;;;;3.40;1.52;;;11.50;99.90;;;;;;5114452;28;20027;-64
2023/04/08 08:12:38;;;;;;;2.15;1.38;;;11.60;99.90;;;;;;5114751;28;20104;-63
2023/04/08 08:15:04;;;;;;;7.30;1.85;;;11.70;99.90;;;;;;5114169;28;20034;-63
2023/04/08 08:17:32;;;;;;;3.33;1.48;;;11.80;99.90;;;;;;5113774;28;20030;-64
2023/04/08 08:19:59;;;;;;;3.28;1.48;;;11.70;99.90;;;;;;5114446;28;20039;-64
2023/04/08 08:22:25;;;;;;;2.92;1.52;;;11.80;99.90;;;;;;5114074;28;20099;-64
2023/04/08 08:24:58;;;;;;;2.53;1.40;;;11.90;99.90;;;;;;5113772;28;20115;-64
2023/04/08 08:27:24;;;;;;;2.75;1.50;;;12.00;99.90;;;;;;5113833;28;20070;-64
2023/04/08 08:29:50;;;;;;;3.22;1.30;;;12.00;99.90;;;;;;5113714;28;20103;-64
2023/04/08 08:32:16;;;;;;;3.47;1.60;;;12.20;99.90;;;;;;5113852;28;20102;-64
2023/04/08 08:34:41;;;;;;;4.20;1.60;;;12.20;99.90;;;;;;5113989;28;20107;-63
2023/04/08 08:37:07;;;;;;;5.38;1.50;;;12.20;99.90;;;;;;5113850;28;20365;-64
2023/04/08 08:39:32;;;;;;;4.28;1.33;;;12.40;99.90;;;;;;5113621;28;20023;-64
2023/04/08 08:41:58;;;;;;;3.72;1.42;;;12.50;99.90;;;;;;5113614;28;20051;-63
2023/04/08 08:44:24;;;;;;;3.30;1.40;;;12.50;99.90;;;;;;5113573;28;20038;-63
2023/04/08 08:46:50;;;;;;;3.13;1.45;;;12.60;99.90;;;;;;5113524;28;20041;-63
2023/04/08 08:49:16;;;;;;;4.00;1.75;;;12.60;99.90;;;;;;5113477;28;20027;-64
2023/04/08 08:51:45;;;;;;;2.67;1.30;;;12.70;99.90;;;;;;5113353;28;20035;-64
2023/04/08 08:54:12;;;;;;;3.83;1.30;;;12.70;99.90;;;;;;5113429;28;20479;-64
2023/04/08 08:56:37;;;;;;;3.60;1.40;;;12.90;99.90;;;;;;5113323;28;20560;-63
2023/04/08 08:59:03;;;;;;;2.38;1.25;;;12.90;99.90;;;;;;5113043;28;20047;-64
2023/04/08 09:01:36;;;;;;;6.13;1.23;;;13.10;99.90;;;;;;5113315;28;20467;-63
2023/04/08 09:04:07;;;;;;;4.03;1.45;;;13.20;99.90;;;;;;5113263;28;20092;-64
2023/04/08 09:06:33;;;;;;;2.65;1.50;;;13.20;99.90;;;;;;5112987;28;20031;-65
2023/04/08 09:08:58;;;;;;;3.13;1.45;;;13.10;99.90;;;;;;5113353;28;20042;-64
2023/04/08 09:11:25;;;;;;;4.05;1.73;;;13.20;99.90;;;;;;5112872;28;20051;-64
2023/04/08 09:13:50;;;;;;;3.92;1.30;;;13.30;99.90;;;;;;5112603;28;20084;-65
2023/04/08 09:16:18;;;;;;;3.00;1.30;;;13.40;99.90;;;;;;5113373;28;20027;-64
2023/04/08 09:18:46;;;;;;;2.72;1.38;;;13.50;99.90;;;;;;5112745;28;20027;-65
2023/04/08 09:21:16;;;;;;;3.47;1.75;;;13.70;99.90;;;;;;5112919;28;20088;-65
2023/04/08 09:23:42;;;;;;;5.03;1.40;;;13.90;99.90;;;;;;5112923;28;20050;-65
2023/04/08 09:26:11;;;;;;;3.75;1.30;;;14.00;99.90;;;;;;5112555;28;20543;-65
2023/04/08 09:28:40;;;;;;;3.40;1.40;;;14.10;99.90;;;;;;5112669;28;20051;-64
2023/04/08 09:31:23;;;;;;;2.05;1.20;;;13.90;99.90;;;;;;5112735;28;20559;-65
2023/04/08 09:33:50;;;;;;;3.42;1.80;;;13.90;99.90;;;;;;5113311;28;20020;-64
2023/04/08 09:36:17;;;;;;;3.50;1.40;;;14.10;99.90;;;;;;5112787;28;20073;-65
2023/04/08 09:38:43;;;;;;;2.28;1.38;;;14.10;99.90;;;;;;5112729;28;20527;-65
2023/04/08 09:41:15;;;;;;;2.38;1.30;;;14.30;99.90;;;;;;5112582;28;20099;-65
2023/04/08 09:43:50;;;;;;;3.50;1.50;;;14.30;99.90;;;;;;5112715;28;20111;-64
2023/04/08 09:46:24;;;;;;;2.22;1.20;;;14.50;99.90;;;;;;5112669;28;20028;-65
2023/04/08 09:49:19;;;;;;;2.03;1.20;;;14.40;99.90;;;;;;5112388;28;20063;-64
2023/04/08 09:51:59;;;;;;;4.05;1.35;;;14.50;99.90;;;;;;5112707;28;20085;-65
2023/04/08 09:54:39;;;;;;;5.18;1.35;;;14.50;99.90;;;;;;5112660;28;20035;-65
2023/04/08 09:57:34;;;;;;;3.22;1.58;;;14.80;99.90;;;;;;5112240;28;20489;-64
2023/04/08 10:00:06;;;;;;;4.57;1.85;;;15.00;99.90;;;;;;5087554;28;20401;-65
2023/04/08 10:02:41;;;;;;;3.60;1.75;;;15.10;99.90;;;;;;5092256;28;20043;-64
2023/04/08 10:05:08;;;;;;;3.63;1.40;;;15.20;99.90;;;;;;5092023;28;20043;-64
2023/04/08 10:07:34;;;;;;;3.15;1.10;;;15.30;99.90;;;;;;5092235;28;20114;-64
2023/04/08 10:10:01;;;;;;;2.35;1.10;;;15.50;99.90;;;;;;5091910;28;20423;-65
2023/04/08 10:12:27;;;;;;;1.98;1.25;;;15.50;99.90;;;;;;5094339;28;20480;-65
2023/04/08 10:15:24;;;;;;;3.40;1.30;;;15.60;99.90;;;;;;5096171;28;20025;-65
2023/04/08 10:17:51;;;;;;;1.80;1.10;;;15.60;99.90;;;;;;5096101;28;20040;-64
2023/04/08 10:20:35;;;;;;;3.38;1.20;;;15.90;99.90;;;;;;5097975;28;20024;-65
2023/04/08 10:23:02;;;;;;;;;;;16.10;99.90;;;;;;5116901;28;20024;-65
2023/04/08 10:25:32;;;;;;;2.35;1.00;;;16.20;99.90;;;;;;5115965;28;19923;-65
2023/04/08 10:28:10;;;;;;;4.95;1.10;;;16.40;99.90;;;;;;5115826;28;20036;-65
2023/04/08 10:30:39;;;;;;;4.53;1.33;;;16.40;99.90;;;;;;5116277;28;20029;-65
2023/04/08 10:33:33;;;;;;;1.95;1.10;;;16.50;99.90;;;;;;5116326;28;20023;-65
2023/04/08 10:36:10;;;;;;;2.85;1.10;;;16.30;99.90;;;;;;5113065;28;20137;-65
2023/04/08 10:38:36;;;;;;;3.08;1.00;;;16.40;99.90;;;;;;5115967;28;20034;-64
2023/04/08 10:41:01;;;;;;;1.50;0.80;;;16.50;99.90;;;;;;5116036;28;20038;-64
2023/04/08 10:43:35;;;;;;;1.77;0.90;;;16.60;99.90;;;;;;5115922;28;20020;-65
2023/04/08 10:46:01;;;;;;;2.67;1.00;;;16.50;99.90;;;;;;5115943;28;20038;-65
2023/04/08 10:48:30;;;;;;;2.00;1.05;;;16.50;99.90;;;;;;5115801;28;20051;-64
2023/04/08 10:51:01;;;;;;;3.40;2.08;;;16.70;99.90;;;;;;5115796;28;20102;-65
2023/04/08 10:53:32;;;;;;;1.85;1.40;;;16.80;99.90;;;;;;5115967;28;20035;-65
2023/04/08 10:56:13;;;;;;;2.50;1.45;;;17.20;99.90;;;;;;5115610;28;20437;-65
2023/04/08 10:58:50;;;;;;;2.97;1.80;;;17.00;99.90;;;;;;5115604;28;20016;-65
2023/04/08 11:01:15;;;;;;;3.03;1.67;;;16.90;99.90;;;;;;5115772;28;20106;-64
2023/04/08 11:03:41;;;;;;;3.00;1.45;;;17.00;99.90;;;;;;5115601;28;20106;-64
2023/04/08 11:06:08;;;;;;;1.60;1.35;;;17.00;99.90;;;;;;5115881;28;20031;-65
2023/04/08 11:08:35;;;;;;;2.88;0.90;;;17.20;99.90;;;;;;5115303;28;20430;-65
2023/04/08 11:11:01;;;;;;;2.45;0.90;;;17.40;99.90;;;;;;5115177;28;20024;-65
2023/04/08 11:13:27;;;;;;;2.22;0.98;;;17.60;99.90;;;;;;5115811;28;20091;-65
2023/04/08 11:15:55;;;;;;;2.00;1.10;;;17.80;99.90;;;;;;5115501;28;20073;-64
2023/04/08 11:18:22;;;;;;;1.42;1.00;;;18.00;99.30;;;;;;5114301;28;20031;-66
2023/04/08 11:20:50;;;;;;;2.75;1.10;;;17.80;98.80;;;;;;5114970;28;20100;-68
2023/04/08 11:23:16;;;;;;;0.95;0.88;;;17.90;99.70;;;;;;5113761;28;20023;-65
2023/04/08 11:25:43;;;;;;;5.28;1.02;;;18.30;97.30;;;;;;5113734;28;20126;-67
2023/04/08 11:28:13;;;;;;;3.08;0.98;;;18.50;96.50;;;;;;5113439;28;20023;-65
2023/04/08 11:30:39;;;;;;;3.30;1.50;;;18.60;98.10;;;;;;5115275;28;20027;-67
2023/04/08 11:33:06;;;;;;;2.30;1.83;;;18.70;97.20;;;;;;5115039;28;20024;-67
2023/04/08 11:35:33;;;;;;;4.18;2.58;;;18.60;96.50;;;;;;5096818;28;20100;-66
2023/04/08 11:37:59;;;;;;;19.85;14.18;;;18.80;96.60;;;;;;5114705;28;20036;-67
2023/04/08 11:40:25;;;;;;;109.43;76.15;;;18.70;96.30;;;;;;5113865;28;20070;-66
2023/04/08 11:42:51;;;;;;;125.57;74.80;;;19.00;96.70;;;;;;5114791;28;20035;-66
2023/04/08 11:45:20;;;;;;;17.70;10.93;;;19.20;95.60;;;;;;5114037;28;20051;-68
2023/04/08 11:47:47;;;;;;;14.23;7.43;;;19.10;94.40;;;;;;5114511;28;20557;-67
2023/04/08 11:50:25;;;;;;;1.27;1.02;;;19.00;94.30;;;;;;5114713;28;20024;-67
2023/04/08 11:52:52;;;;;;;7.03;4.18;;;18.80;92.30;;;;;;5114473;28;20076;-67
2023/04/08 11:55:31;;;;;;;7.20;5.30;;;18.90;93.00;;;;;;5114119;28;20365;-68
2023/04/08 11:58:02;;;;;;;3.55;2.15;;;19.30;93.40;;;;;;5114292;28;20024;-66
2023/04/08 12:00:28;;;;;;;2.33;1.48;;;19.30;92.50;;;;;;5114556;28;20019;-67
2023/04/08 12:02:53;;;;;;;1.92;1.30;;;19.10;91.90;;;;;;5114815;28;20096;-68
2023/04/08 12:05:20;;;;;;;3.08;2.72;;;19.30;90.80;;;;;;5114407;28;20543;-66
2023/04/08 12:07:46;;;;;;;4.80;4.00;;;19.50;90.10;;;;;;5113649;28;20093;-67
2023/04/08 12:10:12;;;;;;;3.03;2.40;;;19.80;90.00;;;;;;5114295;28;20031;-65
2023/04/08 12:12:39;;;;;;;4.85;1.75;;;19.90;90.60;;;;;;5114302;28;20062;-67
2023/04/08 12:15:06;;;;;;;3.08;1.13;;;20.00;89.70;;;;;;5114205;28;20479;-66
2023/04/08 12:17:32;;;;;;;1.60;1.20;;;19.90;89.90;;;;;;5114068;28;20024;-66
2023/04/08 12:19:58;;;;;;;0.80;0.80;;;20.20;90.90;;;;;;5114066;28;20027;-65
2023/04/08 12:22:24;;;;;;;1.27;1.17;;;20.00;88.30;;;;;;5113493;28;20035;-65
2023/04/08 12:24:50;;;;;;;1.73;1.00;;;20.10;90.10;;;;;;5113966;28;20126;-65
2023/04/08 12:27:15;;;;;;;1.27;1.00;;;20.40;90.20;;;;;;5113688;28;20497;-65
2023/04/08 12:29:42;;;;;;;1.67;1.17;;;20.60;90.80;;;;;;5095707;28;20035;-66
2023/04/08 12:32:08;;;;;;;3.03;1.02;;;20.80;91.20;;;;;;5113800;28;20049;-66
2023/04/08 12:34:34;;;;;;;1.45;0.95;;;20.50;90.90;;;;;;5113877;28;20547;-66
2023/04/08 12:36:59;;;;;;;1.23;0.82;;;20.80;90.20;;;;;;5113403;28;20122;-65
2023/04/08 12:39:25;;;;;;;1.70;0.70;;;20.50;83.50;;;;;;5113607;28;20019;-67
2023/04/08 12:41:51;;;;;;;2.42;1.00;;;20.60;82.30;;;;;;5112905;28;20053;-65
2023/04/08 12:44:17;;;;;;;2.17;1.25;;;20.90;84.80;;;;;;5113471;28;20024;-67
2023/04/08 12:46:42;;;;;;;1.75;0.82;;;21.20;84.30;;;;;;5113559;28;20037;-65
2023/04/08 12:49:08;;;;;;;2.45;0.93;;;21.40;83.80;;;;;;5113382;28;20043;-67
2023/04/08 12:51:34;;;;;;;1.80;1.00;;;21.50;84.10;;;;;;5112588;28;20028;-67